sensor_id;sensor_type;location;lat;lon;timestamp;P1;durP1;ratioP1;P2;durP2;ratioP2
22026;SDS011;11177;50.966;10.070;2022-11-11T00:01:19;18.30;;;6.55;;
22026;SDS011;11177;50.966;10.070;2022-11-11T00:03:46;17.35;;;6.13;;
22026;SDS011;11177;50.966;10.070;2022-11-11T00:06:14;17.60;;;6.43;;
22026;SDS011;11177;50.966;10.070;2022-11-11T00:08:41;15.55;;;6.28;;
22026;SDS011;11177;50.966;10.070;2022-11-11T00:11:10;10.40;;;5.55;;
22026;SDS011;11177;50.966;10.070;2022-11-11T00:13:38;14.05;;;5.80;;
22026;SDS011;11177;50.966;10.070;2022-11-11T00:16:13;13.02;;;5.88;;
22026;SDS011;11177;50.966;10.070;2022-11-11T00:18:41;15.18;;;6.10;;
22026;SDS011;11177;50.966;10.070;2022-11-11T00:21:28;13.98;;;6.15;;
22026;SDS011;11177;50.966;10.070;2022-11-11T00:24:21;11.73;;;5.05;;
22026;SDS011;11177;50.966;10.070;2022-11-11T00:27:11;13.88;;;5.05;;
22026;SDS011;11177;50.966;10.070;2022-11-11T00:29:38;12.52;;;5.68;;
22026;SDS011;11177;50.966;10.070;2022-11-11T00:32:06;12.10;;;5.65;;
22026;SDS011;11177;50.966;10.070;2022-11-11T00:34:50;11.30;;;5.45;;
22026;SDS011;11177;50.966;10.070;2022-11-11T00:37:36;12.75;;;5.47;;
22026;SDS011;11177;50.966;10.070;2022-11-11T00:40:03;10.07;;;5.10;;
22026;SDS011;11177;50.966;10.070;2022-11-11T00:42:31;14.88;;;5.40;;
22026;SDS011;11177;50.966;10.070;2022-11-11T00:44:58;9.80;;;5.13;;
22026;SDS011;11177;50.966;10.070;2022-11-11T00:47:24;11.55;;;5.32;;
22026;SDS011;11177;50.966;10.070;2022-11-11T00:50:11;11.18;;;5.35;;
22026;SDS011;11177;50.966;10.070;2022-11-11T00:53:07;11.60;;;5.25;;
22026;SDS011;11177;50.966;10.070;2022-11-11T00:55:36;9.90;;;5.13;;
22026;SDS011;11177;50.966;10.070;2022-11-11T00:58:03;11.80;;;5.15;;
22026;SDS011;11177;50.966;10.070;2022-11-11T01:00:30;11.73;;;5.30;;
22026;SDS011;11177;50.966;10.070;2022-11-11T01:02:57;7.75;;;5.05;;
22026;SDS011;11177;50.966;10.070;2022-11-11T01:05:24;10.77;;;5.45;;
22026;SDS011;11177;50.966;10.070;2022-11-11T01:07:52;11.98;;;5.55;;
22026;SDS011;11177;50.966;10.070;2022-11-11T01:10:19;11.18;;;5.20;;
22026;SDS011;11177;50.966;10.070;2022-11-11T01:13:06;11.27;;;4.78;;
22026;SDS011;11177;50.966;10.070;2022-11-11T01:15:41;9.05;;;4.65;;
22026;SDS011;11177;50.966;10.070;2022-11-11T01:18:09;12.93;;;5.22;;
22026;SDS011;11177;50.966;10.070;2022-11-11T01:20:37;13.95;;;5.47;;
22026;SDS011;11177;50.966;10.070;2022-11-11T01:23:06;9.25;;;4.63;;
22026;SDS011;11177;50.966;10.070;2022-11-11T01:25:38;13.13;;;5.22;;
22026;SDS011;11177;50.966;10.070;2022-11-11T01:28:06;10.90;;;5.63;;
22026;SDS011;11177;50.966;10.070;2022-11-11T01:30:34;14.52;;;5.03;;
22026;SDS011;11177;50.966;10.070;2022-11-11T01:33:01;11.75;;;4.85;;
22026;SDS011;11177;50.966;10.070;2022-11-11T01:35:28;10.48;;;4.43;;
22026;SDS011;11177;50.966;10.070;2022-11-11T01:37:56;11.13;;;5.30;;
22026;SDS011;11177;50.966;10.070;2022-11-11T01:40:24;12.35;;;5.00;;
22026;SDS011;11177;50.966;10.070;2022-11-11T01:42:53;10.88;;;5.30;;
22026;SDS011;11177;50.966;10.070;2022-11-11T01:45:48;9.38;;;4.95;;
22026;SDS011;11177;50.966;10.070;2022-11-11T01:48:28;13.75;;;5.10;;
22026;SDS011;11177;50.966;10.070;2022-11-11T01:54:18;15.70;;;5.68;;
22026;SDS011;11177;50.966;10.070;2022-11-11T01:56:53;12.98;;;5.50;;
22026;SDS011;11177;50.966;10.070;2022-11-11T01:59:30;13.40;;;5.28;;
22026;SDS011;11177;50.966;10.070;2022-11-11T02:01:59;13.38;;;5.57;;
22026;SDS011;11177;50.966;10.070;2022-11-11T02:04:30;11.40;;;5.20;;
22026;SDS011;11177;50.966;10.070;2022-11-11T02:07:15;11.23;;;5.18;;
22026;SDS011;11177;50.966;10.070;2022-11-11T02:09:43;12.25;;;5.07;;
22026;SDS011;11177;50.966;10.070;2022-11-11T02:12:11;10.98;;;5.20;;
22026;SDS011;11177;50.966;10.070;2022-11-11T02:14:58;13.05;;;5.20;;
22026;SDS011;11177;50.966;10.070;2022-11-11T02:17:27;11.85;;;5.40;;
22026;SDS011;11177;50.966;10.070;2022-11-11T02:19:57;12.68;;;5.20;;
22026;SDS011;11177;50.966;10.070;2022-11-11T02:22:47;9.88;;;5.25;;
22026;SDS011;11177;50.966;10.070;2022-11-11T02:25:19;13.63;;;5.13;;
22026;SDS011;11177;50.966;10.070;2022-11-11T02:27:49;9.55;;;5.10;;
22026;SDS011;11177;50.966;10.070;2022-11-11T02:30:17;9.38;;;4.97;;
22026;SDS011;11177;50.966;10.070;2022-11-11T02:32:48;10.77;;;5.10;;
22026;SDS011;11177;50.966;10.070;2022-11-11T02:35:17;11.35;;;5.30;;
22026;SDS011;11177;50.966;10.070;2022-11-11T02:37:50;13.65;;;5.10;;
22026;SDS011;11177;50.966;10.070;2022-11-11T02:40:20;8.68;;;4.88;;
22026;SDS011;11177;50.966;10.070;2022-11-11T02:42:50;10.55;;;4.95;;
22026;SDS011;11177;50.966;10.070;2022-11-11T02:45:17;9.77;;;4.65;;
22026;SDS011;11177;50.966;10.070;2022-11-11T02:47:44;13.23;;;5.32;;
22026;SDS011;11177;50.966;10.070;2022-11-11T02:50:11;13.10;;;5.45;;
22026;SDS011;11177;50.966;10.070;2022-11-11T02:52:37;16.45;;;6.38;;
22026;SDS011;11177;50.966;10.070;2022-11-11T02:55:05;13.73;;;5.50;;
22026;SDS011;11177;50.966;10.070;2022-11-11T02:57:32;11.57;;;4.85;;
22026;SDS011;11177;50.966;10.070;2022-11-11T02:59:59;11.65;;;5.80;;
22026;SDS011;11177;50.966;10.070;2022-11-11T03:02:27;11.52;;;5.55;;
22026;SDS011;11177;50.966;10.070;2022-11-11T03:04:55;14.07;;;5.07;;
22026;SDS011;11177;50.966;10.070;2022-11-11T03:07:22;13.05;;;5.43;;
22026;SDS011;11177;50.966;10.070;2022-11-11T03:09:50;13.88;;;5.65;;
22026;SDS011;11177;50.966;10.070;2022-11-11T03:12:17;18.35;;;6.57;;
22026;SDS011;11177;50.966;10.070;2022-11-11T03:14:44;14.38;;;5.63;;
22026;SDS011;11177;50.966;10.070;2022-11-11T03:17:11;16.30;;;6.75;;
22026;SDS011;11177;50.966;10.070;2022-11-11T03:19:57;18.70;;;7.38;;
22026;SDS011;11177;50.966;10.070;2022-11-11T03:22:43;20.15;;;7.72;;
22026;SDS011;11177;50.966;10.070;2022-11-11T03:25:20;20.55;;;7.38;;
22026;SDS011;11177;50.966;10.070;2022-11-11T03:28:09;22.55;;;8.23;;
22026;SDS011;11177;50.966;10.070;2022-11-11T03:30:38;26.08;;;7.82;;
22026;SDS011;11177;50.966;10.070;2022-11-11T03:33:08;17.55;;;6.97;;
22026;SDS011;11177;50.966;10.070;2022-11-11T03:35:35;16.25;;;6.40;;
22026;SDS011;11177;50.966;10.070;2022-11-11T03:38:04;15.82;;;5.65;;
22026;SDS011;11177;50.966;10.070;2022-11-11T03:40:51;18.10;;;5.72;;
22026;SDS011;11177;50.966;10.070;2022-11-11T03:43:20;11.15;;;5.22;;
22026;SDS011;11177;50.966;10.070;2022-11-11T03:45:48;17.13;;;5.40;;
22026;SDS011;11177;50.966;10.070;2022-11-11T03:48:15;11.98;;;5.20;;
22026;SDS011;11177;50.966;10.070;2022-11-11T03:50:42;11.60;;;4.95;;
22026;SDS011;11177;50.966;10.070;2022-11-11T03:53:09;14.70;;;5.60;;
22026;SDS011;11177;50.966;10.070;2022-11-11T03:55:36;11.40;;;4.55;;
22026;SDS011;11177;50.966;10.070;2022-11-11T03:58:03;8.68;;;4.22;;
22026;SDS011;11177;50.966;10.070;2022-11-11T04:00:30;9.43;;;4.68;;
22026;SDS011;11177;50.966;10.070;2022-11-11T04:03:10;11.10;;;4.38;;
22026;SDS011;11177;50.966;10.070;2022-11-11T04:05:56;12.10;;;4.45;;
22026;SDS011;11177;50.966;10.070;2022-11-11T04:08:42;11.35;;;4.28;;
22026;SDS011;11177;50.966;10.070;2022-11-11T04:11:38;9.05;;;3.90;;
22026;SDS011;11177;50.966;10.070;2022-11-11T04:14:07;8.27;;;4.40;;
22026;SDS011;11177;50.966;10.070;2022-11-11T04:16:54;11.50;;;4.28;;
22026;SDS011;11177;50.966;10.070;2022-11-11T04:19:21;10.00;;;4.55;;
22026;SDS011;11177;50.966;10.070;2022-11-11T04:22:07;11.15;;;4.05;;
22026;SDS011;11177;50.966;10.070;2022-11-11T04:24:33;12.10;;;4.35;;
22026;SDS011;11177;50.966;10.070;2022-11-11T04:27:19;8.95;;;4.53;;
22026;SDS011;11177;50.966;10.070;2022-11-11T04:29:47;12.63;;;4.25;;
22026;SDS011;11177;50.966;10.070;2022-11-11T04:32:16;10.23;;;4.05;;
22026;SDS011;11177;50.966;10.070;2022-11-11T04:35:02;10.25;;;4.25;;
22026;SDS011;11177;50.966;10.070;2022-11-11T04:37:35;11.10;;;4.63;;
22026;SDS011;11177;50.966;10.070;2022-11-11T04:40:02;9.77;;;3.88;;
22026;SDS011;11177;50.966;10.070;2022-11-11T04:42:51;9.88;;;3.97;;
22026;SDS011;11177;50.966;10.070;2022-11-11T04:45:18;6.38;;;3.95;;
22026;SDS011;11177;50.966;10.070;2022-11-11T04:48:04;12.13;;;4.35;;
22026;SDS011;11177;50.966;10.070;2022-11-11T04:50:39;8.02;;;4.15;;
22026;SDS011;11177;50.966;10.070;2022-11-11T04:53:11;10.95;;;4.32;;
22026;SDS011;11177;50.966;10.070;2022-11-11T04:55:39;10.05;;;4.43;;
22026;SDS011;11177;50.966;10.070;2022-11-11T04:58:27;9.30;;;4.72;;
22026;SDS011;11177;50.966;10.070;2022-11-11T05:00:55;12.50;;;5.53;;
22026;SDS011;11177;50.966;10.070;2022-11-11T05:03:22;10.50;;;5.32;;
22026;SDS011;11177;50.966;10.070;2022-11-11T05:05:53;10.85;;;5.53;;
22026;SDS011;11177;50.966;10.070;2022-11-11T05:08:44;12.18;;;6.40;;
22026;SDS011;11177;50.966;10.070;2022-11-11T05:13:53;10.07;;;5.38;;
22026;SDS011;11177;50.966;10.070;2022-11-11T05:16:42;8.27;;;5.10;;
22026;SDS011;11177;50.966;10.070;2022-11-11T05:19:29;11.70;;;6.00;;
22026;SDS011;11177;50.966;10.070;2022-11-11T05:22:27;12.07;;;5.68;;
22026;SDS011;11177;50.966;10.070;2022-11-11T05:24:56;14.10;;;5.57;;
22026;SDS011;11177;50.966;10.070;2022-11-11T05:27:42;13.43;;;4.93;;
22026;SDS011;11177;50.966;10.070;2022-11-11T05:30:09;10.48;;;5.18;;
22026;SDS011;11177;50.966;10.070;2022-11-11T05:32:37;7.95;;;4.97;;
22026;SDS011;11177;50.966;10.070;2022-11-11T05:35:04;10.20;;;5.07;;
22026;SDS011;11177;50.966;10.070;2022-11-11T05:37:32;14.98;;;5.25;;
22026;SDS011;11177;50.966;10.070;2022-11-11T05:39:59;11.40;;;5.47;;
22026;SDS011;11177;50.966;10.070;2022-11-11T05:42:26;16.48;;;5.68;;
22026;SDS011;11177;50.966;10.070;2022-11-11T05:44:53;8.40;;;4.88;;
22026;SDS011;11177;50.966;10.070;2022-11-11T05:47:20;11.48;;;4.93;;
22026;SDS011;11177;50.966;10.070;2022-11-11T05:49:46;12.25;;;5.13;;
22026;SDS011;11177;50.966;10.070;2022-11-11T05:52:13;11.63;;;5.28;;
22026;SDS011;11177;50.966;10.070;2022-11-11T05:54:44;13.68;;;5.20;;
22026;SDS011;11177;50.966;10.070;2022-11-11T05:57:11;9.57;;;5.20;;
22026;SDS011;11177;50.966;10.070;2022-11-11T05:59:38;14.93;;;5.97;;
22026;SDS011;11177;50.966;10.070;2022-11-11T06:02:05;20.65;;;6.03;;
22026;SDS011;11177;50.966;10.070;2022-11-11T06:04:32;19.13;;;6.95;;
22026;SDS011;11177;50.966;10.070;2022-11-11T06:07:00;12.10;;;5.30;;
22026;SDS011;11177;50.966;10.070;2022-11-11T06:09:27;14.13;;;5.82;;
22026;SDS011;11177;50.966;10.070;2022-11-11T06:11:54;11.60;;;5.15;;
22026;SDS011;11177;50.966;10.070;2022-11-11T06:14:21;10.80;;;5.60;;
22026;SDS011;11177;50.966;10.070;2022-11-11T06:16:48;11.10;;;5.35;;
22026;SDS011;11177;50.966;10.070;2022-11-11T06:19:15;13.63;;;5.95;;
22026;SDS011;11177;50.966;10.070;2022-11-11T06:21:42;15.23;;;6.00;;
22026;SDS011;11177;50.966;10.070;2022-11-11T06:24:38;12.88;;;5.70;;
22026;SDS011;11177;50.966;10.070;2022-11-11T06:27:04;11.55;;;5.47;;
22026;SDS011;11177;50.966;10.070;2022-11-11T06:29:31;13.60;;;5.45;;
22026;SDS011;11177;50.966;10.070;2022-11-11T06:31:58;14.75;;;5.80;;
22026;SDS011;11177;50.966;10.070;2022-11-11T06:34:25;13.18;;;6.50;;
22026;SDS011;11177;50.966;10.070;2022-11-11T06:36:52;16.83;;;6.90;;
22026;SDS011;11177;50.966;10.070;2022-11-11T06:39:19;10.77;;;6.22;;
22026;SDS011;11177;50.966;10.070;2022-11-11T06:41:46;19.83;;;6.90;;
22026;SDS011;11177;50.966;10.070;2022-11-11T06:44:13;15.00;;;6.05;;
22026;SDS011;11177;50.966;10.070;2022-11-11T06:46:39;11.20;;;5.72;;
22026;SDS011;11177;50.966;10.070;2022-11-11T06:49:06;11.55;;;6.43;;
22026;SDS011;11177;50.966;10.070;2022-11-11T06:51:33;13.35;;;6.72;;
22026;SDS011;11177;50.966;10.070;2022-11-11T06:54:00;10.88;;;5.82;;
22026;SDS011;11177;50.966;10.070;2022-11-11T06:56:27;13.10;;;5.88;;
22026;SDS011;11177;50.966;10.070;2022-11-11T06:58:53;9.80;;;5.20;;
22026;SDS011;11177;50.966;10.070;2022-11-11T07:01:20;11.10;;;5.55;;
22026;SDS011;11177;50.966;10.070;2022-11-11T07:03:47;11.18;;;5.55;;
22026;SDS011;11177;50.966;10.070;2022-11-11T07:06:14;9.18;;;5.05;;
22026;SDS011;11177;50.966;10.070;2022-11-11T07:08:41;8.90;;;5.05;;
22026;SDS011;11177;50.966;10.070;2022-11-11T07:11:09;10.77;;;6.05;;
22026;SDS011;11177;50.966;10.070;2022-11-11T07:13:44;12.68;;;5.75;;
22026;SDS011;11177;50.966;10.070;2022-11-11T07:16:11;11.93;;;6.70;;
22026;SDS011;11177;50.966;10.070;2022-11-11T07:18:37;13.38;;;7.20;;
22026;SDS011;11177;50.966;10.070;2022-11-11T07:21:04;14.63;;;7.30;;
22026;SDS011;11177;50.966;10.070;2022-11-11T07:23:31;12.88;;;6.85;;
22026;SDS011;11177;50.966;10.070;2022-11-11T07:25:58;15.32;;;6.95;;
22026;SDS011;11177;50.966;10.070;2022-11-11T07:28:25;9.18;;;6.18;;
22026;SDS011;11177;50.966;10.070;2022-11-11T07:30:52;15.02;;;7.10;;
22026;SDS011;11177;50.966;10.070;2022-11-11T07:33:19;14.90;;;7.13;;
22026;SDS011;11177;50.966;10.070;2022-11-11T07:35:50;11.38;;;7.10;;
22026;SDS011;11177;50.966;10.070;2022-11-11T07:38:16;13.10;;;7.07;;
22026;SDS011;11177;50.966;10.070;2022-11-11T07:40:43;13.50;;;6.70;;
22026;SDS011;11177;50.966;10.070;2022-11-11T07:43:10;11.40;;;6.93;;
22026;SDS011;11177;50.966;10.070;2022-11-11T07:45:37;12.00;;;6.70;;
22026;SDS011;11177;50.966;10.070;2022-11-11T07:48:04;12.23;;;7.03;;
22026;SDS011;11177;50.966;10.070;2022-11-11T07:50:31;15.38;;;7.40;;
22026;SDS011;11177;50.966;10.070;2022-11-11T07:52:57;12.85;;;6.80;;
22026;SDS011;11177;50.966;10.070;2022-11-11T07:55:24;12.30;;;7.15;;
22026;SDS011;11177;50.966;10.070;2022-11-11T07:57:51;13.02;;;6.75;;
22026;SDS011;11177;50.966;10.070;2022-11-11T08:00:18;11.98;;;6.47;;
22026;SDS011;11177;50.966;10.070;2022-11-11T08:02:46;11.52;;;6.75;;
22026;SDS011;11177;50.966;10.070;2022-11-11T08:05:14;9.32;;;6.32;;
22026;SDS011;11177;50.966;10.070;2022-11-11T08:07:41;12.35;;;6.97;;
22026;SDS011;11177;50.966;10.070;2022-11-11T08:10:10;13.40;;;7.13;;
22026;SDS011;11177;50.966;10.070;2022-11-11T08:12:37;18.48;;;7.82;;
22026;SDS011;11177;50.966;10.070;2022-11-11T08:15:23;12.23;;;7.65;;
22026;SDS011;11177;50.966;10.070;2022-11-11T08:17:50;11.85;;;7.07;;
22026;SDS011;11177;50.966;10.070;2022-11-11T08:20:16;13.35;;;7.25;;
22026;SDS011;11177;50.966;10.070;2022-11-11T08:22:44;12.10;;;7.03;;
22026;SDS011;11177;50.966;10.070;2022-11-11T08:25:31;11.18;;;6.85;;
22026;SDS011;11177;50.966;10.070;2022-11-11T08:27:58;11.25;;;6.97;;
22026;SDS011;11177;50.966;10.070;2022-11-11T08:30:26;14.30;;;6.70;;
22026;SDS011;11177;50.966;10.070;2022-11-11T08:32:56;12.25;;;6.95;;
22026;SDS011;11177;50.966;10.070;2022-11-11T08:35:47;12.02;;;6.82;;
22026;SDS011;11177;50.966;10.070;2022-11-11T08:38:15;12.57;;;7.82;;
22026;SDS011;11177;50.966;10.070;2022-11-11T08:40:42;15.23;;;8.30;;
22026;SDS011;11177;50.966;10.070;2022-11-11T08:43:09;16.80;;;7.82;;
22026;SDS011;11177;50.966;10.070;2022-11-11T08:45:36;14.00;;;7.68;;
22026;SDS011;11177;50.966;10.070;2022-11-11T08:48:03;10.07;;;6.70;;
22026;SDS011;11177;50.966;10.070;2022-11-11T08:50:30;12.02;;;6.95;;
22026;SDS011;11177;50.966;10.070;2022-11-11T08:52:57;13.30;;;6.80;;
22026;SDS011;11177;50.966;10.070;2022-11-11T08:55:24;11.45;;;6.47;;
22026;SDS011;11177;50.966;10.070;2022-11-11T08:57:57;12.25;;;6.55;;
22026;SDS011;11177;50.966;10.070;2022-11-11T09:02:52;8.48;;;5.65;;
22026;SDS011;11177;50.966;10.070;2022-11-11T09:05:19;9.15;;;6.05;;
22026;SDS011;11177;50.966;10.070;2022-11-11T09:07:45;23.83;;;12.23;;
22026;SDS011;11177;50.966;10.070;2022-11-11T09:10:12;12.00;;;6.20;;
22026;SDS011;11177;50.966;10.070;2022-11-11T09:12:39;8.60;;;5.90;;
22026;SDS011;11177;50.966;10.070;2022-11-11T09:15:06;11.77;;;7.07;;
22026;SDS011;11177;50.966;10.070;2022-11-11T09:17:33;13.88;;;7.25;;
22026;SDS011;11177;50.966;10.070;2022-11-11T09:20:00;12.05;;;6.57;;
22026;SDS011;11177;50.966;10.070;2022-11-11T09:22:27;7.35;;;5.40;;
22026;SDS011;11177;50.966;10.070;2022-11-11T09:24:54;8.95;;;5.15;;
22026;SDS011;11177;50.966;10.070;2022-11-11T09:27:21;6.60;;;4.90;;
22026;SDS011;11177;50.966;10.070;2022-11-11T09:29:48;7.72;;;4.63;;
22026;SDS011;11177;50.966;10.070;2022-11-11T09:32:15;7.68;;;4.95;;
22026;SDS011;11177;50.966;10.070;2022-11-11T09:34:42;7.03;;;5.15;;
22026;SDS011;11177;50.966;10.070;2022-11-11T09:37:09;7.57;;;4.95;;
22026;SDS011;11177;50.966;10.070;2022-11-11T09:39:35;10.13;;;4.63;;
22026;SDS011;11177;50.966;10.070;2022-11-11T09:42:06;7.47;;;4.43;;
22026;SDS011;11177;50.966;10.070;2022-11-11T09:48:25;7.03;;;4.10;;
22026;SDS011;11177;50.966;10.070;2022-11-11T09:53:16;9.93;;;4.53;;
22026;SDS011;11177;50.966;10.070;2022-11-11T09:55:55;6.65;;;4.30;;
22026;SDS011;11177;50.966;10.070;2022-11-11T09:59:04;4.63;;;3.65;;
22026;SDS011;11177;50.966;10.070;2022-11-11T10:01:39;11.43;;;4.30;;
22026;SDS011;11177;50.966;10.070;2022-11-11T10:07:21;6.50;;;3.50;;
22026;SDS011;11177;50.966;10.070;2022-11-11T10:09:55;5.47;;;3.67;;
22026;SDS011;11177;50.966;10.070;2022-11-11T10:12:25;6.72;;;3.63;;
22026;SDS011;11177;50.966;10.070;2022-11-11T10:15:10;6.47;;;3.03;;
22026;SDS011;11177;50.966;10.070;2022-11-11T10:17:43;6.47;;;3.50;;
22026;SDS011;11177;50.966;10.070;2022-11-11T10:20:21;6.70;;;3.38;;
22026;SDS011;11177;50.966;10.070;2022-11-11T10:22:53;6.55;;;3.40;;
22026;SDS011;11177;50.966;10.070;2022-11-11T10:25:26;5.75;;;3.40;;
22026;SDS011;11177;50.966;10.070;2022-11-11T10:27:55;6.00;;;3.40;;
22026;SDS011;11177;50.966;10.070;2022-11-11T10:30:25;5.47;;;3.05;;
22026;SDS011;11177;50.966;10.070;2022-11-11T10:33:04;4.65;;;2.83;;
22026;SDS011;11177;50.966;10.070;2022-11-11T10:35:37;8.40;;;3.40;;
22026;SDS011;11177;50.966;10.070;2022-11-11T10:38:12;4.30;;;3.17;;
22026;SDS011;11177;50.966;10.070;2022-11-11T10:43:46;10.55;;;2.97;;
22026;SDS011;11177;50.966;10.070;2022-11-11T10:46:23;5.43;;;2.83;;
22026;SDS011;11177;50.966;10.070;2022-11-11T10:48:58;6.82;;;3.28;;
22026;SDS011;11177;50.966;10.070;2022-11-11T10:51:36;9.00;;;4.28;;
22026;SDS011;11177;50.966;10.070;2022-11-11T10:54:26;9.35;;;3.88;;
22026;SDS011;11177;50.966;10.070;2022-11-11T10:57:11;5.35;;;3.10;;
22026;SDS011;11177;50.966;10.070;2022-11-11T11:02:39;4.95;;;2.35;;
22026;SDS011;11177;50.966;10.070;2022-11-11T11:05:35;6.47;;;2.53;;
22026;SDS011;11177;50.966;10.070;2022-11-11T11:08:26;5.05;;;2.58;;
22026;SDS011;11177;50.966;10.070;2022-11-11T11:10:56;4.40;;;2.20;;
22026;SDS011;11177;50.966;10.070;2022-11-11T11:13:36;5.07;;;2.25;;
22026;SDS011;11177;50.966;10.070;2022-11-11T11:16:07;5.85;;;1.60;;
22026;SDS011;11177;50.966;10.070;2022-11-11T11:18:39;5.13;;;1.40;;
22026;SDS011;11177;50.966;10.070;2022-11-11T11:21:09;3.00;;;1.05;;
22026;SDS011;11177;50.966;10.070;2022-11-11T11:23:42;3.60;;;1.08;;
22026;SDS011;11177;50.966;10.070;2022-11-11T11:26:11;2.35;;;0.85;;
22026;SDS011;11177;50.966;10.070;2022-11-11T11:28:51;4.43;;;0.98;;
22026;SDS011;11177;50.966;10.070;2022-11-11T11:31:34;2.25;;;0.98;;
22026;SDS011;11177;50.966;10.070;2022-11-11T11:34:03;5.68;;;0.98;;
22026;SDS011;11177;50.966;10.070;2022-11-11T11:36:30;3.85;;;1.02;;
22026;SDS011;11177;50.966;10.070;2022-11-11T11:38:57;2.63;;;0.70;;
22026;SDS011;11177;50.966;10.070;2022-11-11T11:41:36;3.83;;;0.85;;
22026;SDS011;11177;50.966;10.070;2022-11-11T11:47:05;3.60;;;0.90;;
22026;SDS011;11177;50.966;10.070;2022-11-11T11:49:46;3.47;;;0.80;;
22026;SDS011;11177;50.966;10.070;2022-11-11T11:55:59;2.85;;;0.57;;
22026;SDS011;11177;50.966;10.070;2022-11-11T12:08:29;4.05;;;0.85;;
22026;SDS011;11177;50.966;10.070;2022-11-11T12:17:01;4.73;;;0.90;;
22026;SDS011;11177;50.966;10.070;2022-11-11T12:34:30;2.50;;;0.80;;
22026;SDS011;11177;50.966;10.070;2022-11-11T12:37:14;3.17;;;0.73;;
22026;SDS011;11177;50.966;10.070;2022-11-11T12:40:03;2.10;;;0.80;;
22026;SDS011;11177;50.966;10.070;2022-11-11T12:42:50;3.45;;;0.85;;
22026;SDS011;11177;50.966;10.070;2022-11-11T12:45:51;2.80;;;0.68;;
22026;SDS011;11177;50.966;10.070;2022-11-11T12:52:24;1.88;;;0.70;;
22026;SDS011;11177;50.966;10.070;2022-11-11T12:55:14;1.55;;;0.60;;
22026;SDS011;11177;50.966;10.070;2022-11-11T13:01:23;2.13;;;0.80;;
22026;SDS011;11177;50.966;10.070;2022-11-11T13:04:34;1.95;;;0.70;;
22026;SDS011;11177;50.966;10.070;2022-11-11T13:08:10;1.38;;;0.65;;
22026;SDS011;11177;50.966;10.070;2022-11-11T13:10:24;4.82;;;1.05;;
22026;SDS011;11177;50.966;10.070;2022-11-11T13:16:00;1.83;;;0.90;;
22026;SDS011;11177;50.966;10.070;2022-11-11T13:21:13;3.13;;;0.77;;
22026;SDS011;11177;50.966;10.070;2022-11-11T13:23:41;2.22;;;0.82;;
22026;SDS011;11177;50.966;10.070;2022-11-11T13:26:52;4.10;;;0.90;;
22026;SDS011;11177;50.966;10.070;2022-11-11T13:29:21;2.97;;;0.70;;
22026;SDS011;11177;50.966;10.070;2022-11-11T13:32:01;2.85;;;0.70;;
22026;SDS011;11177;50.966;10.070;2022-11-11T13:34:30;4.93;;;1.10;;
22026;SDS011;11177;50.966;10.070;2022-11-11T13:37:00;2.55;;;0.95;;
22026;SDS011;11177;50.966;10.070;2022-11-11T13:39:31;3.67;;;0.70;;
22026;SDS011;11177;50.966;10.070;2022-11-11T13:42:00;2.28;;;0.70;;
22026;SDS011;11177;50.966;10.070;2022-11-11T13:44:48;4.15;;;0.80;;
22026;SDS011;11177;50.966;10.070;2022-11-11T13:47:21;3.53;;;1.02;;
22026;SDS011;11177;50.966;10.070;2022-11-11T13:49:51;3.05;;;1.05;;
22026;SDS011;11177;50.966;10.070;2022-11-11T13:52:20;3.28;;;1.00;;
22026;SDS011;11177;50.966;10.070;2022-11-11T13:55:01;3.00;;;0.80;;
22026;SDS011;11177;50.966;10.070;2022-11-11T13:57:30;4.22;;;1.20;;
22026;SDS011;11177;50.966;10.070;2022-11-11T14:00:03;3.67;;;1.02;;
22026;SDS011;11177;50.966;10.070;2022-11-11T14:02:33;7.03;;;1.60;;
22026;SDS011;11177;50.966;10.070;2022-11-11T14:15:48;2.35;;;0.90;;
22026;SDS011;11177;50.966;10.070;2022-11-11T14:18:31;2.80;;;0.90;;
22026;SDS011;11177;50.966;10.070;2022-11-11T14:21:01;2.83;;;1.13;;
22026;SDS011;11177;50.966;10.070;2022-11-11T14:23:32;2.78;;;0.90;;
22026;SDS011;11177;50.966;10.070;2022-11-11T14:29:00;1.30;;;0.90;;
22026;SDS011;11177;50.966;10.070;2022-11-11T14:34:48;1.45;;;1.15;;
22026;SDS011;11177;50.966;10.070;2022-11-11T14:37:34;1.95;;;1.42;;
22026;SDS011;11177;50.966;10.070;2022-11-11T14:40:25;2.70;;;1.90;;
22026;SDS011;11177;50.966;10.070;2022-11-11T14:42:53;3.53;;;1.98;;
22026;SDS011;11177;50.966;10.070;2022-11-11T14:57:17;2.97;;;2.50;;
22026;SDS011;11177;50.966;10.070;2022-11-11T14:59:46;4.95;;;3.80;;
22026;SDS011;11177;50.966;10.070;2022-11-11T15:02:20;4.78;;;3.55;;
22026;SDS011;11177;50.966;10.070;2022-11-11T15:04:49;6.97;;;4.70;;
22026;SDS011;11177;50.966;10.070;2022-11-11T15:11:10;6.43;;;4.20;;
22026;SDS011;11177;50.966;10.070;2022-11-11T15:14:18;4.30;;;2.70;;
22026;SDS011;11177;50.966;10.070;2022-11-11T15:17:04;3.25;;;2.22;;
22026;SDS011;11177;50.966;10.070;2022-11-11T15:23:30;4.47;;;2.55;;
22026;SDS011;11177;50.966;10.070;2022-11-11T15:26:05;3.13;;;2.10;;
22026;SDS011;11177;50.966;10.070;2022-11-11T15:28:56;4.78;;;2.53;;
22026;SDS011;11177;50.966;10.070;2022-11-11T15:31:38;4.18;;;3.15;;
22026;SDS011;11177;50.966;10.070;2022-11-11T15:34:26;5.00;;;2.80;;
22026;SDS011;11177;50.966;10.070;2022-11-11T15:37:08;3.70;;;3.05;;
22026;SDS011;11177;50.966;10.070;2022-11-11T15:39:40;4.82;;;3.30;;
22026;SDS011;11177;50.966;10.070;2022-11-11T15:42:21;3.88;;;3.00;;
22026;SDS011;11177;50.966;10.070;2022-11-11T15:44:55;3.80;;;3.03;;
22026;SDS011;11177;50.966;10.070;2022-11-11T15:47:25;4.15;;;2.97;;
22026;SDS011;11177;50.966;10.070;2022-11-11T15:50:00;3.70;;;2.72;;
22026;SDS011;11177;50.966;10.070;2022-11-11T15:52:31;6.72;;;2.80;;
22026;SDS011;11177;50.966;10.070;2022-11-11T15:55:08;8.07;;;4.07;;
22026;SDS011;11177;50.966;10.070;2022-11-11T15:57:44;7.47;;;4.85;;
22026;SDS011;11177;50.966;10.070;2022-11-11T16:03:13;7.65;;;4.70;;
22026;SDS011;11177;50.966;10.070;2022-11-11T16:05:43;3.70;;;3.13;;
22026;SDS011;11177;50.966;10.070;2022-11-11T16:08:14;5.45;;;4.20;;
22026;SDS011;11177;50.966;10.070;2022-11-11T16:10:46;4.57;;;3.25;;
22026;SDS011;11177;50.966;10.070;2022-11-11T16:13:20;5.32;;;3.63;;
22026;SDS011;11177;50.966;10.070;2022-11-11T16:15:57;6.55;;;3.60;;
22026;SDS011;11177;50.966;10.070;2022-11-11T16:18:47;5.93;;;3.70;;
22026;SDS011;11177;50.966;10.070;2022-11-11T16:21:26;5.55;;;3.50;;
22026;SDS011;11177;50.966;10.070;2022-11-11T16:23:56;6.30;;;3.95;;
22026;SDS011;11177;50.966;10.070;2022-11-11T16:26:24;9.50;;;4.55;;
22026;SDS011;11177;50.966;10.070;2022-11-11T16:28:56;7.45;;;4.50;;
22026;SDS011;11177;50.966;10.070;2022-11-11T16:31:35;22.08;;;8.05;;
22026;SDS011;11177;50.966;10.070;2022-11-11T16:37:11;10.68;;;6.47;;
22026;SDS011;11177;50.966;10.070;2022-11-11T16:39:41;13.07;;;7.03;;
22026;SDS011;11177;50.966;10.070;2022-11-11T16:42:16;12.70;;;6.55;;
22026;SDS011;11177;50.966;10.070;2022-11-11T16:47:39;9.02;;;4.88;;
22026;SDS011;11177;50.966;10.070;2022-11-11T16:50:19;9.90;;;4.68;;
22026;SDS011;11177;50.966;10.070;2022-11-11T16:52:51;8.20;;;4.95;;
22026;SDS011;11177;50.966;10.070;2022-11-11T16:58:19;9.10;;;5.07;;
22026;SDS011;11177;50.966;10.070;2022-11-11T17:00:47;6.15;;;4.25;;
22026;SDS011;11177;50.966;10.070;2022-11-11T17:03:17;5.68;;;3.95;;
22026;SDS011;11177;50.966;10.070;2022-11-11T17:11:06;14.45;;;5.35;;